Thursday, January 18, 2018, 12:17 AM GMT
Back to Local

CWNH, Riviere Du Loup, Que.

Location: , , Canada Lat: 47.8
Local Time: 12:17 AM GMT ( 0:17 GMT) Lon: -69.55
Time Zone: GMT Elev: 485 ft

Show me the last for .
Show Coded

Time T Td Feel RH Dir Speed Gust Alt SLP Vis Weather Sky Remarks
2018-01-18 00:00 18 14 - 82 180° 1 - - 30.05 0 None
2018-01-17 23:00 18 15 - 88 190° 1 - - 30.08 0 None
2018-01-17 22:00 18 13 - 79 190° 1 - - 30.10 0 None
2018-01-17 21:00 18 12 - 78 200° 1 - - 30.12 0 None
2018-01-17 20:00 18 13 - 81 200° 1 - - 30.14 0 None
2018-01-17 19:00 19 14 - 81 210° 1 - - 30.17 0 None
2018-01-17 18:00 19 14 - 81 220° 2 - - 30.20 0 None
2018-01-17 17:00 20 15 - 77 200° 2 - - 30.24 0 None
2018-01-17 16:00 17 15 - 90 200° 2 - - 30.29 0 None
2018-01-17 15:00 15 12 - 87 180° 1 - - 30.31 0 None
2018-01-17 14:00 12 11 - 97 - Calm - - 30.33 0 None
2018-01-17 13:00 6 3 - 84 150° 1 - - 30.34 0 None
2018-01-17 12:00 9 7 - 89 - Calm - - 30.35 0 None
2018-01-17 11:00 5 2 - 88 - Calm - - 30.36 0 None
2018-01-17 10:00 6 3 - 86 - Calm - - 30.36 0 None
2018-01-17 09:00 6 3 - 87 - Calm - - 30.37 0 None
2018-01-17 08:00 10 5 - 80 - Calm - - 30.38 0 None
2018-01-17 07:00 7 4 - 86 - Calm - - 30.38 0 None
2018-01-17 06:00 6 3 - 86 - Calm - - 30.38 0 None
2018-01-17 05:00 5 2 - 87 200° 1 - - 30.40 0 None
2018-01-17 04:00 2 -3 - 78 - Calm - - 30.41 0 None
2018-01-17 03:00 -1 -5 - 83 - Calm - - 30.42 0 None
2018-01-17 02:00 0 -3 - 84 - Calm - - 30.43 0 None
2018-01-17 01:00 0 -4 - 84 - Calm - - 30.43 0 None

Support USWX by starting your Amazon purchase here.